Time;durP1;ratioP1;P1;durP2;ratioP2;P2;SDS_P1;SDS_P2;PMS_P1;PMS_P2;Temp;Humidity;BMP_temperature;BMP_pressure;BME280_temperature;BME280_humidity;BME280_pressure;Samples;Min_cycle;Max_cycle;Signal;HPM_P1;HPM_P2
2022/01/20 00:00:32;;;;;;;81.10;33.50;;;;;;;-1.66;70.85;95775.66;5102104;28;20205;-71
2022/01/20 00:03:07;;;;;;;88.33;33.57;;;;;;;-1.91;71.57;95781.69;5098725;28;20212;-70
2022/01/20 00:05:52;;;;;;;75.70;35.37;;;;;;;-1.86;72.04;95786.78;5101688;28;20629;-69
2022/01/20 00:08:31;;;;;;;80.67;33.60;;;;;;;-1.91;72.59;95783.31;5101892;28;20216;-71
2022/01/20 00:27:39;;;;;;;96.20;38.63;;;;;;;-2.22;73.41;95769.22;5098726;28;20208;-70
2022/01/20 00:33:01;;;;;;;98.83;42.00;;;;;;;-2.06;73.22;95769.69;5091732;28;20204;-68
2022/01/20 00:37:14;;;;;;;138.47;52.47;;;;;;;-2.03;72.95;95765.59;5096033;28;20204;-69
2022/01/20 00:38:17;;;;;;;98.73;45.10;;;;;;;-1.84;72.55;95768.59;5095685;28;20228;-69
2022/01/20 00:40:44;;;;;;;100.77;42.47;;;;;;;-1.86;72.23;95766.84;5097817;28;20212;-68
2022/01/20 00:43:11;;;;;;;97.53;41.20;;;;;;;-1.96;72.36;95759.94;5096594;28;20675;-70
2022/01/20 00:45:39;;;;;;;103.13;42.93;;;;;;;-1.86;72.40;95756.88;5098884;28;21205;-69
2022/01/20 00:48:08;;;;;;;102.27;44.43;;;;;;;-1.92;71.88;95744.28;5099142;28;20234;-69
2022/01/20 00:50:35;;;;;;;110.47;41.17;;;;;;;-1.90;72.52;95760.94;5099179;28;20197;-68
2022/01/20 00:53:02;;;;;;;106.60;41.20;;;;;;;-1.94;72.26;95758.34;5098351;28;20239;-68
2022/01/20 00:55:29;;;;;;;100.23;43.07;;;;;;;-1.86;71.92;95741.94;5098542;28;20323;-68
2022/01/20 00:57:56;;;;;;;97.93;42.80;;;;;;;-1.80;71.81;95752.06;5096839;28;20242;-69
2022/01/20 01:00:22;;;;;;;99.10;41.20;;;;;;;-1.79;71.69;95753.75;5100150;28;20597;-68
2022/01/20 01:02:49;;;;;;;93.47;38.77;;;;;;;-1.83;71.58;95752.00;5099473;28;20580;-69
2022/01/20 01:05:17;;;;;;;101.83;40.77;;;;;;;-1.88;71.92;95753.50;5099979;28;20235;-68
2022/01/20 01:07:49;;;;;;;100.07;43.23;;;;;;;-2.14;72.28;95761.16;5096898;28;20209;-69
2022/01/20 01:10:18;;;;;;;90.90;42.03;;;;;;;-2.03;72.40;95745.66;5094979;28;20202;-69
2022/01/20 01:12:49;;;;;;;99.93;40.37;;;;;;;-1.96;71.86;95745.00;5095207;28;21080;-67
2022/01/20 01:15:21;;;;;;;86.37;41.50;;;;;;;-2.14;72.44;95742.91;5095691;28;20201;-69
2022/01/20 01:20:55;;;;;;;115.17;44.47;;;;;;;-2.30;72.46;95729.22;5095846;28;20221;-69
2022/01/20 01:23:21;;;;;;;99.87;41.50;;;;;;;-2.35;72.62;95723.28;5099797;28;20201;-68
2022/01/20 01:25:48;;;;;;;95.30;43.33;;;;;;;-2.33;73.09;95736.59;5099240;28;20646;-67
2022/01/20 01:28:16;;;;;;;114.73;45.77;;;;;;;-2.24;73.23;95728.53;5096671;28;20201;-68
2022/01/20 01:31:06;;;;;;;119.07;44.23;;;;;;;-2.12;72.86;95728.84;5099594;28;20367;-68
2022/01/20 01:33:35;;;;;;;101.40;43.83;;;;;;;-2.08;72.12;95726.47;5099775;28;20768;-69
2022/01/20 01:36:06;;;;;;;104.57;44.23;;;;;;;-2.16;72.46;95722.94;5099992;28;20612;-68
2022/01/20 01:38:39;;;;;;;105.87;42.20;;;;;;;-2.31;72.44;95715.09;5097476;28;20228;-69
2022/01/20 01:41:10;;;;;;;101.60;41.33;;;;;;;-2.44;72.79;95715.56;5095325;28;20207;-69
2022/01/20 01:43:39;;;;;;;113.83;40.97;;;;;;;-2.45;73.18;95707.25;5098788;28;20206;-71
2022/01/20 01:46:06;;;;;;;86.20;36.97;;;;;;;-2.40;73.20;95717.31;5098590;28;20220;-69
2022/01/20 01:48:34;;;;;;;89.83;38.97;;;;;;;-2.48;73.33;95713.81;5099239;28;20229;-68
2022/01/20 01:51:01;;;;;;;99.03;41.23;;;;;;;-2.57;73.61;95701.97;5098584;28;20208;-67
2022/01/20 01:53:29;;;;;;;101.37;40.03;;;;;;;-2.55;73.82;95699.50;5097586;28;20229;-67
2022/01/20 01:55:56;;;;;;;90.03;39.30;;;;;;;-2.44;73.19;95700.63;5098733;28;20228;-68
2022/01/20 01:58:23;;;;;;;106.23;40.90;;;;;;;-2.54;73.45;95693.72;5099337;28;20349;-67
2022/01/20 02:00:49;;;;;;;90.40;39.03;;;;;;;-2.65;74.08;95685.13;5098487;28;21160;-69
2022/01/20 02:03:16;;;;;;;91.27;37.97;;;;;;;-2.71;74.34;95670.03;5097687;28;20764;-70
2022/01/20 02:05:58;;;;;;;102.47;41.93;;;;;;;-2.73;74.58;95681.63;5099096;28;20285;-69
2022/01/20 02:08:32;;;;;;;102.87;41.50;;;;;;;-2.64;74.72;95687.66;5099814;28;20201;-70
2022/01/20 02:19:14;;;;;;;94.37;38.17;;;;;;;-3.01;76.66;95680.84;5100199;28;20236;-69
2022/01/20 02:21:50;;;;;;;92.53;39.97;;;;;;;-3.14;77.21;95678.81;5102987;28;20231;-68
2022/01/20 02:24:17;;;;;;;103.80;39.17;;;;;;;-2.80;76.38;95669.00;5102246;28;20221;-68
2022/01/20 02:26:44;;;;;;;94.30;39.60;;;;;;;-2.82;76.02;95668.13;5102697;28;20204;-68
2022/01/20 02:29:12;;;;;;;106.40;41.23;;;;;;;-2.70;75.44;95664.25;5102675;28;20233;-69
2022/01/20 02:31:39;;;;;;;94.50;39.20;;;;;;;-2.78;75.50;95669.88;5099170;28;20236;-68
2022/01/20 02:34:09;;;;;;;101.73;37.23;;;;;;;-2.80;75.99;95660.69;5096742;27;20264;-69
2022/01/20 02:36:37;;;;;;;85.63;36.20;;;;;;;-2.85;76.34;95657.25;5103327;28;20201;-68
2022/01/20 02:39:12;;;;;;;90.33;38.63;;;;;;;-2.72;75.57;95653.44;5102672;28;20228;-68
2022/01/20 02:47:11;;;;;;;77.37;29.43;;;;;;;-2.51;74.20;95654.84;5102946;28;20212;-69
2022/01/20 02:49:38;;;;;;;69.83;30.93;;;;;;;-2.33;72.93;95656.94;5100829;28;20372;-68
2022/01/20 02:52:06;;;;;;;77.27;32.30;;;;;;;-2.44;74.20;95646.72;5103039;28;20228;-69
2022/01/20 02:54:34;;;;;;;85.00;33.83;;;;;;;-2.68;74.86;95655.19;5101935;28;20266;-70
2022/01/20 02:57:01;;;;;;;79.50;28.03;;;;;;;-2.53;74.48;95651.47;5103335;28;20268;-68
2022/01/20 02:59:28;;;;;;;63.77;27.93;;;;;;;-2.57;73.72;95651.34;5099833;28;20312;-70
2022/01/20 03:01:55;;;;;;;67.37;28.10;;;;;;;-2.54;73.68;95629.03;5097236;28;20282;-69
2022/01/20 03:04:25;;;;;;;50.63;23.13;;;;;;;-2.35;72.77;95647.75;5099226;28;20864;-69
2022/01/20 03:06:53;;;;;;;63.20;29.60;;;;;;;-2.26;72.16;95641.38;5102917;28;20208;-70
2022/01/20 03:09:19;;;;;;;76.47;32.23;;;;;;;-2.43;72.86;95643.41;5102504;28;20272;-70
2022/01/20 03:11:48;;;;;;;67.93;30.87;;;;;;;-2.51;72.59;95644.03;5102620;28;20196;-70
2022/01/20 03:14:17;;;;;;;68.17;30.33;;;;;;;-2.60;73.23;95638.81;5102289;28;20289;-70
2022/01/20 03:16:44;;;;;;;73.60;30.00;;;;;;;-2.60;73.16;95631.34;5102556;28;20205;-70
2022/01/20 03:19:10;;;;;;;67.87;29.63;;;;;;;-2.54;72.81;95637.34;5102355;28;20857;-70
2022/01/20 03:21:37;;;;;;;66.63;29.93;;;;;;;-2.53;72.44;95631.56;5101628;28;20245;-70
2022/01/20 03:24:04;;;;;;;72.43;30.80;;;;;;;-2.79;73.57;95635.88;5101620;28;20217;-70
2022/01/20 03:26:31;;;;;;;70.67;31.20;;;;;;;-2.67;72.67;95620.41;5099062;28;20202;-71
2022/01/20 03:28:59;;;;;;;65.67;30.10;;;;;;;-2.72;72.95;95639.34;5097793;28;20229;-71
2022/01/20 03:31:27;;;;;;;65.03;30.67;;;;;;;-3.04;73.72;95627.72;5102004;28;20236;-70
2022/01/20 03:33:53;;;;;;;63.53;29.83;;;;;;;-3.27;74.95;95632.03;5101564;28;20298;-69
2022/01/20 03:36:21;;;;;;;52.47;26.30;;;;;;;-3.29;75.51;95628.69;5102107;28;20241;-69
2022/01/20 03:38:47;;;;;;;63.33;26.40;;;;;;;-3.20;74.87;95624.78;5099490;28;20909;-71
2022/01/20 03:41:14;;;;;;;55.83;25.53;;;;;;;-3.20;75.05;95616.47;5102082;28;20759;-69
2022/01/20 03:43:41;;;;;;;57.60;27.80;;;;;;;-3.34;75.31;95617.75;5101540;28;20220;-68
2022/01/20 03:46:12;;;;;;;65.17;28.73;;;;;;;-3.32;75.45;95624.47;5099361;28;20225;-68
2022/01/20 03:48:49;;;;;;;56.90;26.93;;;;;;;-3.31;75.96;95615.34;5097828;28;20213;-69
2022/01/20 03:51:20;;;;;;;80.57;28.10;;;;;;;-3.10;75.38;95610.97;5097625;28;20197;-69
2022/01/20 03:53:47;;;;;;;60.23;29.27;;;;;;;-2.86;74.76;95615.75;5097242;28;20204;-69
2022/01/20 03:56:14;;;;;;;62.53;28.13;;;;;;;-3.10;73.89;95606.00;5099064;28;20303;-69
2022/01/20 03:58:41;;;;;;;65.63;28.40;;;;;;;-3.20;75.12;95611.50;5102106;28;20229;-69
2022/01/20 04:01:10;;;;;;;59.00;27.23;;;;;;;-3.04;74.71;95612.78;5101963;28;20208;-69
2022/01/20 04:03:37;;;;;;;71.43;27.90;;;;;;;-2.88;73.80;95613.22;5099782;28;20278;-68
2022/01/20 04:06:04;;;;;;;56.50;25.90;;;;;;;-2.71;73.40;95606.19;5101459;28;20232;-68
2022/01/20 04:08:33;;;;;;;76.03;28.43;;;;;;;-2.76;73.51;95608.59;5098062;28;20277;-69
2022/01/20 04:11:00;;;;;;;57.40;29.67;;;;;;;-2.91;73.32;95602.34;5101117;28;20639;-69
2022/01/20 04:13:30;;;;;;;71.93;31.77;;;;;;;-3.01;74.02;95595.47;5100447;28;20255;-70
2022/01/20 04:15:59;;;;;;;67.70;30.60;;;;;;;-2.98;74.11;95616.28;5097872;28;21051;-69
2022/01/20 04:18:30;;;;;;;71.13;29.57;;;;;;;-3.10;74.50;95599.38;5101412;28;20230;-69
2022/01/20 04:20:57;;;;;;;95.65;41.63;;;;;;;-3.02;75.34;95608.69;5100039;28;20445;-69
2022/01/20 04:23:24;;;;;;;84.33;34.80;;;;;;;-2.93;74.67;95608.94;5100285;28;20201;-69
2022/01/20 04:25:50;;;;;;;69.23;32.67;;;;;;;-2.97;74.50;95600.53;5100099;28;21340;-69
2022/01/20 04:28:18;;;;;;;74.23;34.80;;;;;;;-3.00;74.50;95602.97;5101543;28;20691;-70
2022/01/20 04:30:45;;;;;;;67.90;31.80;;;;;;;-3.08;74.08;95609.38;5100909;28;20738;-69
2022/01/20 04:33:11;;;;;;;63.33;28.80;;;;;;;-3.22;75.07;95603.19;5099645;28;20193;-69
2022/01/20 04:35:40;;;;;;;78.10;30.60;;;;;;;-3.11;74.43;95599.34;5100636;28;20193;-70
2022/01/20 04:38:07;;;;;;;79.10;32.40;;;;;;;-2.95;74.41;95606.41;5100412;28;20276;-69
2022/01/20 04:40:39;;;;;;;76.50;32.80;;;;;;;-2.99;73.86;95614.59;5100497;28;20207;-69
2022/01/20 04:43:06;;;;;;;83.47;35.20;;;;;;;-3.06;74.32;95605.28;5096560;28;20301;-69
2022/01/20 04:45:39;;;;;;;70.40;33.13;;;;;;;-2.96;73.96;95609.69;5097882;28;20205;-69
2022/01/20 04:48:18;;;;;;;81.00;31.47;;;;;;;-3.13;73.91;95598.47;5098353;28;20262;-69
2022/01/20 04:58:58;;;;;;;91.43;35.40;;;;;;;-3.56;75.99;95608.84;5100270;28;20259;-69
2022/01/20 05:01:25;;;;;;;73.63;32.87;;;;;;;-3.58;76.89;95606.31;5096353;28;20632;-69
2022/01/20 05:03:53;;;;;;;81.83;32.07;;;;;;;-3.31;76.41;95600.44;5097355;28;20796;-69
2022/01/20 05:06:22;;;;;;;81.20;32.87;;;;;;;-3.23;75.50;95604.00;5096177;28;20197;-70
2022/01/20 05:08:52;;;;;;;79.90;31.73;;;;;;;-3.30;75.93;95598.00;5096691;28;20205;-70
2022/01/20 05:11:18;;;;;;;78.17;33.63;;;;;;;-3.30;75.99;95602.13;5099785;28;20205;-70
2022/01/20 05:13:45;;;;;;;73.60;33.50;;;;;;;-3.34;76.18;95606.16;5100661;28;20205;-71
2022/01/20 05:16:12;;;;;;;77.03;33.90;;;;;;;-3.40;75.99;95595.22;5100059;28;20759;-70
2022/01/20 05:18:39;;;;;;;89.23;35.00;;;;;;;-3.27;75.23;95589.78;5099955;28;20256;-69
2022/01/20 05:21:06;;;;;;;76.03;33.73;;;;;;;-3.36;75.27;95587.03;5096885;28;20719;-70
2022/01/20 05:23:33;;;;;;;81.30;34.43;;;;;;;-3.15;74.91;95598.41;5099835;28;20682;-70
2022/01/20 05:26:00;;;;;;;78.30;34.17;;;;;;;-2.93;74.37;95609.78;5099789;28;20286;-70
2022/01/20 05:28:27;;;;;;;80.70;36.90;;;;;;;-3.20;74.70;95594.09;5098229;28;20197;-70
2022/01/20 05:30:54;;;;;;;94.27;35.33;;;;;;;-3.25;75.17;95611.41;5099787;28;20879;-70
2022/01/20 05:33:21;;;;;;;68.37;33.27;;;;;;;-3.27;75.61;95607.19;5096210;28;20197;-69
2022/01/20 05:35:47;;;;;;;61.87;27.13;;;;;;;-3.30;75.26;95607.09;5099631;28;20204;-70
2022/01/20 05:38:14;;;;;;;74.73;28.80;;;;;;;-3.47;75.81;95602.50;5098567;28;20686;-71
2022/01/20 05:40:45;;;;;;;67.47;29.13;;;;;;;-3.26;75.73;95604.75;5099553;28;20623;-71
2022/01/20 05:43:11;;;;;;;75.93;31.97;;;;;;;-3.15;74.91;95610.00;5098397;28;20663;-71
2022/01/20 05:45:38;;;;;;;50.97;24.07;;;;;;;-3.13;74.93;95600.94;5098599;28;20623;-68
2022/01/20 05:48:12;;;;;;;41.37;18.07;;;;;;;-2.94;73.78;95607.25;5099680;28;20254;-69
2022/01/20 05:50:39;;;;;;;33.57;16.27;;;;;;;-2.96;73.21;95612.16;5095989;28;20236;-69
2022/01/20 05:53:06;;;;;;;31.73;15.00;;;;;;;-2.80;73.02;95618.41;5098971;28;20232;-71
2022/01/20 05:55:34;;;;;;;35.83;17.03;;;;;;;-2.55;75.58;95607.44;5099214;28;20203;-70
2022/01/20 05:58:04;;;;;;;35.87;16.53;;;;;;;-2.34;73.04;95604.63;5099830;28;20228;-69
2022/01/20 06:00:31;;;;;;;31.33;15.20;;;;;;;-2.49;73.79;95597.66;5099170;28;20352;-70
2022/01/20 06:05:43;;;;;;;85.07;36.47;;;;;;;-2.52;74.78;95602.56;5099031;28;20247;-72
2022/01/20 06:08:10;;;;;;;60.80;27.23;;;;;;;-2.21;72.99;95599.13;5099756;28;20196;-68
2022/01/20 06:10:37;;;;;;;54.07;24.60;;;;;;;-1.95;71.17;95602.22;5099249;28;20281;-71
2022/01/20 06:13:05;;;;;;;34.23;18.33;;;;;;;-0.93;68.95;95602.72;5099743;28;20716;-69
2022/01/20 06:15:32;;;;;;;35.77;17.07;;;;;;;0.09;65.37;95601.97;5095322;28;20201;-70
2022/01/20 06:17:59;;;;;;;39.00;18.87;;;;;;;0.99;62.11;95590.69;5096018;28;20201;-70
2022/01/20 06:20:26;;;;;;;33.30;14.40;;;;;;;2.11;58.27;95600.09;5094359;28;20229;-71
2022/01/20 06:22:53;;;;;;;33.20;17.43;;;;;;;2.56;57.63;95592.03;5099269;28;20205;-71
2022/01/20 06:25:20;;;;;;;29.50;13.83;;;;;;;3.88;53.23;95602.50;5098706;28;20743;-70
2022/01/20 06:27:47;;;;;;;40.90;20.67;;;;;;;3.99;52.11;95594.94;5099545;28;20326;-71
2022/01/20 06:30:15;;;;;;;51.47;25.70;;;;;;;3.72;51.89;95590.72;5096987;28;20310;-71
2022/01/20 06:32:42;;;;;;;23.17;13.73;;;;;;;4.23;48.11;95594.09;5098235;28;20225;-70
2022/01/20 06:35:09;;;;;;;31.20;14.57;;;;;;;4.55;48.64;95579.81;5098981;28;20205;-70
2022/01/20 06:37:36;;;;;;;34.77;15.23;;;;;;;4.05;49.41;95598.31;5099061;28;20281;-71
2022/01/20 06:40:05;;;;;;;39.80;19.53;;;;;;;3.68;50.80;95594.94;5096056;28;20264;-71
2022/01/20 06:42:31;;;;;;;31.48;15.52;;;;;;;3.23;50.61;95607.38;5097794;28;20229;-71
2022/01/20 06:44:58;;;;;;;20.73;13.30;;;;;;;3.53;50.38;95599.94;5098534;28;20728;-70
2022/01/20 06:47:26;;;;;;;30.17;14.03;;;;;;;4.42;48.95;95590.75;5099166;28;20229;-69
2022/01/20 06:49:53;;;;;;;25.37;12.30;;;;;;;5.59;44.53;95579.38;5099513;28;20232;-70
2022/01/20 06:52:19;;;;;;;30.98;14.35;;;;;;;6.57;42.74;95577.78;5094949;28;20293;-70
2022/01/20 06:54:46;;;;;;;30.08;16.48;;;;;;;7.35;42.18;95576.91;5098818;28;20238;-71
2022/01/20 06:57:13;;;;;;;30.30;17.33;;;;;;;8.13;40.24;95564.78;5099639;28;20671;-70
2022/01/20 06:59:40;;;;;;;40.03;19.87;;;;;;;7.15;41.13;95569.56;5097927;28;20229;-70
2022/01/20 07:02:07;;;;;;;33.38;16.92;;;;;;;6.42;43.40;95583.00;5098402;28;20198;-70
2022/01/20 07:04:36;;;;;;;30.30;16.42;;;;;;;5.95;43.65;95570.75;5100052;28;20249;-71
2022/01/20 07:07:03;;;;;;;45.03;19.23;;;;;;;6.20;44.23;95586.53;5103068;28;20345;-69
2022/01/20 07:09:29;;;;;;;31.05;17.30;;;;;;;4.94;46.04;95583.06;5098839;28;20651;-70
2022/01/20 07:11:56;;;;;;;32.23;16.97;;;;;;;4.51;47.08;95585.69;5098009;28;20250;-70
2022/01/20 07:14:23;;;;;;;21.70;13.13;;;;;;;3.42;49.20;95597.41;5097501;28;21574;-71
2022/01/20 07:16:50;;;;;;;30.57;13.13;;;;;;;4.14;48.90;95594.13;5102261;27;20250;-71
2022/01/20 07:19:17;;;;;;;26.30;13.80;;;;;;;5.26;46.41;95598.88;5102040;28;20261;-70
2022/01/20 07:21:45;;;;;;;20.63;12.10;;;;;;;6.45;43.57;95598.09;5097105;27;20221;-70
2022/01/20 07:24:12;;;;;;;28.07;13.23;;;;;;;4.99;45.84;95594.78;5098371;28;20201;-70
2022/01/20 07:26:39;;;;;;;32.77;14.63;;;;;;;4.90;46.66;95587.28;5097399;28;20637;-70
2022/01/20 07:29:06;;;;;;;29.40;13.70;;;;;;;6.67;43.39;95583.59;5098155;28;20329;-71
2022/01/20 07:31:33;;;;;;;48.27;24.67;;;;;;;7.25;41.60;95573.63;5102360;28;20236;-71
2022/01/20 07:33:59;;;;;;;32.20;17.53;;;;;;;8.54;38.94;95563.28;5098810;28;20197;-70
2022/01/20 07:36:26;;;;;;;34.87;17.27;;;;;;;9.00;38.30;95577.63;5097395;28;20202;-71
2022/01/20 07:38:54;;;;;;;30.05;15.30;;;;;;;10.01;36.02;95567.00;5098737;28;20228;-71
2022/01/20 07:41:22;;;;;;;29.75;13.45;;;;;;;10.74;34.91;95555.06;5097060;28;20905;-71
2022/01/20 07:43:49;;;;;;;31.95;13.40;;;;;;;10.43;34.79;95561.78;5101240;28;20241;-71
2022/01/20 07:46:15;;;;;;;18.77;12.35;;;;;;;10.87;33.49;95563.22;5100355;28;20705;-71
2022/01/20 07:48:42;;;;;;;30.35;13.50;;;;;;;10.84;33.44;95566.66;5101854;28;20225;-70
2022/01/20 07:51:09;;;;;;;25.30;13.93;;;;;;;10.55;33.82;95569.13;5101853;28;20652;-70
2022/01/20 07:53:36;;;;;;;25.23;13.38;;;;;;;11.25;33.10;95550.25;5101222;27;20190;-70
2022/01/20 07:56:09;;;;;;;31.48;15.18;;;;;;;10.91;32.83;95574.94;5101200;28;20193;-70
2022/01/20 07:58:37;;;;;;;28.48;16.02;;;;;;;10.72;33.03;95573.75;5101767;28;20197;-69
2022/01/20 08:01:04;;;;;;;29.92;14.70;;;;;;;10.19;34.45;95568.31;5098547;28;20275;-70
2022/01/20 08:03:31;;;;;;;34.65;17.23;;;;;;;9.93;34.58;95563.81;5101540;28;20296;-70
2022/01/20 08:05:58;;;;;;;36.38;16.80;;;;;;;8.90;37.34;95566.03;5101321;28;20607;-71
2022/01/20 08:08:24;;;;;;;29.70;15.80;;;;;;;8.33;38.29;95573.78;5100531;28;20201;-70
2022/01/20 08:10:51;;;;;;;38.08;16.73;;;;;;;8.79;37.39;95579.72;5101738;28;20747;-71
2022/01/20 08:13:21;;;;;;;29.83;16.75;;;;;;;10.26;34.80;95585.06;5100042;28;20322;-70
2022/01/20 08:15:48;;;;;;;29.77;15.93;;;;;;;11.54;32.29;95571.50;5101059;28;20621;-69
2022/01/20 08:18:15;;;;;;;28.73;15.02;;;;;;;11.41;32.94;95567.63;5101030;28;20261;-70
2022/01/20 08:20:42;;;;;;;31.85;14.52;;;;;;;11.93;31.94;95564.38;5098636;28;20255;-70
2022/01/20 08:23:09;;;;;;;27.23;15.52;;;;;;;13.35;30.45;95568.16;5101011;28;20201;-70
2022/01/20 08:25:36;;;;;;;34.00;18.73;;;;;;;14.62;28.56;95551.25;5098011;28;20251;-69
2022/01/20 08:28:03;;;;;;;37.08;16.38;;;;;;;15.99;26.89;95545.22;5101057;28;20291;-70
2022/01/20 08:30:31;;;;;;;35.85;15.50;;;;;;;17.04;25.73;95534.09;5101227;28;20293;-70
2022/01/20 08:32:59;;;;;;;30.10;14.65;;;;;;;17.11;25.71;95532.84;5100786;28;20197;-70
2022/01/20 08:35:31;;;;;;;38.08;14.77;;;;;;;18.94;23.06;95528.72;5099513;28;20608;-69
2022/01/20 08:37:59;;;;;;;29.83;14.20;;;;;;;16.37;26.06;95542.53;5100101;28;20289;-69
2022/01/20 08:40:26;;;;;;;32.15;13.82;;;;;;;16.13;25.79;95529.16;5097703;28;20259;-69
2022/01/20 08:42:55;;;;;;;29.27;12.60;;;;;;;15.73;27.60;95527.66;5098958;28;20205;-69
2022/01/20 08:45:24;;;;;;;33.03;15.02;;;;;;;16.24;26.19;95522.63;5096768;28;20329;-69
2022/01/20 08:47:55;;;;;;;27.20;13.98;;;;;;;16.08;26.22;95521.72;5096308;28;20189;-69
2022/01/20 08:50:22;;;;;;;31.33;15.45;;;;;;;18.11;27.84;95524.06;5100060;28;20193;-73
2022/01/20 08:52:49;;;;;;;28.00;15.88;;;;;;;18.35;24.08;95517.53;5096299;28;20205;-73
2022/01/20 08:55:17;;;;;;;37.13;15.32;;;;;;;18.82;23.17;95511.41;5095039;28;20754;-73
2022/01/20 08:57:44;;;;;;;31.85;16.90;;;;;;;18.25;23.83;95506.94;5095742;28;20752;-69
2022/01/20 09:00:13;;;;;;;27.33;16.10;;;;;;;18.38;23.37;95503.66;5099345;28;20260;-70
2022/01/20 09:02:39;;;;;;;39.08;17.70;;;;;;;18.35;23.91;95513.22;5093572;28;20193;-69
2022/01/20 09:05:09;;;;;;;27.08;14.45;;;;;;;18.41;23.60;95517.19;5099344;28;20201;-70
2022/01/20 09:07:36;;;;;;;40.05;14.65;;;;;;;17.43;24.42;95511.44;5096826;28;20286;-69
2022/01/20 09:10:04;;;;;;;26.13;13.95;;;;;;;16.46;25.43;95506.19;5095181;28;20668;-69
2022/01/20 09:15:31;;;;;;;26.13;13.98;;;;;;;14.97;27.92;95514.78;5099951;28;20678;-69
2022/01/20 09:18:02;;;;;;;40.42;14.98;;;;;;;15.65;26.94;95513.44;5097523;28;20208;-69
2022/01/20 09:20:32;;;;;;;41.22;14.55;;;;;;;16.73;25.79;95502.28;5092877;28;20671;-69
2022/01/20 09:22:59;;;;;;;77.07;32.92;;;;;;;16.03;27.05;95503.16;5098628;28;20232;-69
2022/01/20 09:25:27;;;;;;;34.67;17.17;;;;;;;15.64;27.75;95486.16;5097435;28;20193;-69
2022/01/20 09:27:56;;;;;;;32.30;12.65;;;;;;;15.68;27.00;95496.28;5095427;28;20266;-68
2022/01/20 09:30:25;;;;;;;26.05;13.32;;;;;;;15.22;28.23;95490.66;5095982;28;20244;-70
2022/01/20 09:33:08;;;;;;;38.33;14.50;;;;;;;15.05;28.92;95477.81;5100600;28;20318;-70
2022/01/20 09:35:38;;;;;;;30.00;14.00;;;;;;;14.63;28.86;95483.88;5096894;28;20243;-69
2022/01/20 09:38:06;;;;;;;26.95;9.23;;;;;;;14.57;28.13;95481.59;5100307;28;20957;-69
2022/01/20 09:40:34;;;;;;;23.23;7.78;;;;;;;13.91;28.16;95479.13;5097479;28;20233;-69
2022/01/20 09:43:01;;;;;;;18.23;8.02;;;;;;;13.07;29.49;95480.69;5095667;28;20655;-69
2022/01/20 09:45:28;;;;;;;15.48;6.03;;;;;;;12.67;29.62;95464.25;5096699;28;20193;-70
2022/01/20 09:47:56;;;;;;;10.32;7.18;;;;;;;12.71;29.34;95470.06;5099821;28;20201;-70
2022/01/20 09:50:24;;;;;;;14.93;6.22;;;;;;;12.69;29.04;95471.84;5097977;28;20201;-69
2022/01/20 09:52:57;;;;;;;9.13;4.85;;;;;;;12.08;29.52;95453.56;5100074;28;20293;-69
2022/01/20 09:55:24;;;;;;;13.07;5.05;;;;;;;11.73;29.97;95457.19;5099487;28;20201;-69
2022/01/20 09:57:50;;;;;;;13.68;5.65;;;;;;;11.63;30.05;95446.47;5099807;28;20197;-69
2022/01/20 10:00:18;;;;;;;6.13;4.45;;;;;;;11.00;30.34;95439.91;5099485;28;20321;-69
2022/01/20 10:02:54;;;;;;;8.30;3.97;;;;;;;9.62;31.63;95430.91;5099261;28;20297;-70
2022/01/20 10:05:30;;;;;;;9.38;3.75;;;;;;;9.51;31.69;95428.59;5099073;28;20201;-69
2022/01/20 10:08:08;;;;;;;5.78;3.60;;;;;;;9.09;31.93;95430.41;5097350;28;20361;-68
2022/01/20 10:10:46;;;;;;;14.30;4.28;;;;;;;9.13;32.74;95432.03;5099313;28;20224;-69
2022/01/20 10:13:14;;;;;;;8.07;3.88;;;;;;;8.95;31.27;95423.09;5096023;28;20704;-69
2022/01/20 10:15:42;;;;;;;9.73;3.28;;;;;;;8.85;29.77;95412.34;5099322;28;20205;-68
2022/01/20 10:18:11;;;;;;;5.57;3.10;;;;;;;8.89;29.45;95407.22;5099548;28;20321;-69
2022/01/20 10:20:51;;;;;;;6.03;3.10;;;;;;;8.71;30.27;95405.88;5096300;28;20313;-70
2022/01/20 10:23:30;;;;;;;4.63;2.70;;;;;;;8.68;30.84;95404.22;5097880;28;20212;-70
2022/01/20 10:26:05;;;;;;;5.15;2.65;;;;;;;8.39;30.99;95392.19;5099034;28;20304;-70
2022/01/20 10:28:42;;;;;;;5.20;3.00;;;;;;;8.59;31.62;95399.38;5098164;28;20232;-68
2022/01/20 10:31:11;;;;;;;8.80;3.05;;;;;;;8.77;31.46;95380.41;5097990;28;20782;-68
2022/01/20 10:33:40;;;;;;;7.93;3.20;;;;;;;8.79;31.60;95366.00;5100264;28;20277;-70
2022/01/20 10:36:08;;;;;;;5.65;2.97;;;;;;;8.82;30.14;95369.31;5102339;28;20895;-69
2022/01/20 10:38:36;;;;;;;3.85;2.88;;;;;;;8.80;30.98;95365.16;5099241;28;20205;-69
2022/01/20 10:41:04;;;;;;;4.82;2.70;;;;;;;8.68;30.64;95366.22;5099035;27;20229;-69
2022/01/20 10:43:33;;;;;;;8.35;2.30;;;;;;;8.86;31.81;95362.50;5102621;28;20299;-69
2022/01/20 10:46:05;;;;;;;5.60;3.40;;;;;;;8.76;31.49;95361.00;5099823;28;20201;-68
2022/01/20 10:48:32;;;;;;;4.75;3.53;;;;;;;8.47;32.17;95359.91;5102261;28;20667;-69
2022/01/20 10:50:59;;;;;;;6.30;3.80;;;;;;;8.58;33.63;95362.25;5101044;28;20324;-69
2022/01/20 10:53:26;;;;;;;10.55;5.60;;;;;;;9.06;35.02;95359.50;5112150;28;20807;-69
2022/01/20 10:56:05;;;;;;;28.75;13.88;;;;;;;9.73;37.64;95337.56;5111435;28;20204;-69
2022/01/20 10:58:32;;;;;;;12.32;4.00;;;;;;;9.42;31.00;95332.41;5112235;28;20632;-69
2022/01/20 11:01:00;;;;;;;8.80;4.55;;;;;;;9.14;31.64;95332.28;5112975;28;20217;-70
2022/01/20 11:03:28;;;;;;;4.55;3.40;;;;;;;8.97;31.44;95334.34;5111383;28;20220;-69
2022/01/20 11:05:56;;;;;;;9.30;4.63;;;;;;;8.99;30.58;95327.53;5112290;28;20193;-69
2022/01/20 11:08:23;;;;;;;8.77;3.80;;;;;;;9.14;31.43;95324.66;5113607;28;20200;-69
2022/01/20 11:10:52;;;;;;;11.25;4.57;;;;;;;9.01;31.61;95330.88;5113208;28;20248;-69
2022/01/20 11:13:20;;;;;;;8.43;4.63;;;;;;;9.17;31.67;95322.03;5110995;28;20208;-71
2022/01/20 11:15:47;;;;;;;3.00;2.50;;;;;;;9.32;29.80;95316.59;5109882;28;20287;-69
2022/01/20 11:18:14;;;;;;;6.95;2.90;;;;;;;9.40;28.53;95314.69;5109042;28;20675;-69
2022/01/20 11:20:43;;;;;;;3.72;3.30;;;;;;;9.25;28.42;95312.53;5111114;28;20229;-69
2022/01/20 11:23:10;;;;;;;5.35;3.58;;;;;;;9.40;29.18;95314.69;5110429;28;20250;-69
2022/01/20 11:25:39;;;;;;;5.53;3.33;;;;;;;9.37;28.70;95303.81;5111362;28;20193;-69
2022/01/20 11:28:08;;;;;;;5.07;3.60;;;;;;;9.48;29.09;95299.28;5111457;28;20197;-68
2022/01/20 11:30:39;;;;;;;5.68;2.75;;;;;;;9.16;29.76;95305.16;5112631;28;20871;-69
2022/01/20 11:33:08;;;;;;;5.22;2.38;;;;;;;9.26;29.65;95293.94;5112930;28;20197;-68
2022/01/20 11:35:41;;;;;;;4.03;2.85;;;;;;;9.38;29.93;95298.72;5112387;27;20193;-68
2022/01/20 11:38:10;;;;;;;5.60;2.85;;;;;;;9.39;29.16;95295.31;5113216;28;20288;-69
2022/01/20 11:40:49;;;;;;;4.50;2.70;;;;;;;9.18;29.30;95294.09;5113260;28;20221;-69
2022/01/20 11:43:16;;;;;;;10.50;2.85;;;;;;;9.14;30.21;95306.91;5112609;28;20196;-69
2022/01/20 11:45:49;;;;;;;6.45;2.20;;;;;;;9.07;30.61;95306.22;5113467;28;20207;-70
2022/01/20 11:48:18;;;;;;;2.03;1.92;;;;;;;8.99;30.70;95307.25;5113160;28;20232;-69
2022/01/20 11:50:46;;;;;;;9.45;1.98;;;;;;;8.88;31.35;95309.22;5113303;28;20250;-69
2022/01/20 11:53:15;;;;;;;5.60;2.28;;;;;;;8.78;31.28;95299.28;5112772;28;20193;-69
2022/01/20 11:55:44;;;;;;;10.15;2.63;;;;;;;8.92;32.13;95295.59;5112864;28;20672;-69
2022/01/20 11:58:12;;;;;;;3.33;1.85;;;;;;;8.90;31.85;95283.00;5112986;28;20197;-69
2022/01/20 12:00:38;;;;;;;3.63;1.77;;;;;;;8.95;31.74;95290.47;5112425;28;20715;-70
2022/01/20 12:03:12;;;;;;;1.98;1.88;;;;;;;8.92;32.77;95285.44;5112204;27;20659;-69
2022/01/20 12:05:39;;;;;;;4.30;2.50;;;;;;;8.95;32.48;95286.22;5112170;28;20196;-69
2022/01/20 12:08:10;;;;;;;3.63;2.25;;;;;;;8.85;32.93;95285.63;5112828;28;20193;-69
2022/01/20 12:10:38;;;;;;;9.68;2.28;;;;;;;8.83;33.01;95279.75;5112974;28;20194;-69
2022/01/20 12:13:10;;;;;;;2.15;1.88;;;;;;;8.74;32.88;95282.50;5112853;28;20200;-69
2022/01/20 12:15:48;;;;;;;2.28;1.98;;;;;;;8.66;32.92;95279.28;5112683;27;20577;-70
2022/01/20 12:18:17;;;;;;;3.40;2.58;;;;;;;8.66;33.56;95283.56;5112479;28;20285;-69